sensor_id;sensor_type;location;lat;lon;timestamp;temperature;humidity
3980;DHT22;2004;52.452;13.120;2022-10-31T00:01:40;11.60;99.90
3980;DHT22;2004;52.452;13.120;2022-10-31T00:09:31;11.60;99.90
3980;DHT22;2004;52.452;13.120;2022-10-31T00:17:21;11.60;99.90
3980;DHT22;2004;52.452;13.120;2022-10-31T00:25:12;11.60;99.90
3980;DHT22;2004;52.452;13.120;2022-10-31T00:33:03;11.50;99.90
3980;DHT22;2004;52.452;13.120;2022-10-31T00:40:54;11.50;99.90
3980;DHT22;2004;52.452;13.120;2022-10-31T00:48:45;11.50;99.90
3980;DHT22;2004;52.452;13.120;2022-10-31T00:56:35;11.40;99.90
3980;DHT22;2004;52.452;13.120;2022-10-31T01:04:26;11.40;99.90
3980;DHT22;2004;52.452;13.120;2022-10-31T01:12:16;11.40;99.90
3980;DHT22;2004;52.452;13.120;2022-10-31T01:20:08;11.40;99.90
3980;DHT22;2004;52.452;13.120;2022-10-31T01:27:59;11.40;99.90
3980;DHT22;2004;52.452;13.120;2022-10-31T01:35:50;11.40;99.90
3980;DHT22;2004;52.452;13.120;2022-10-31T01:43:47;11.40;99.90
3980;DHT22;2004;52.452;13.120;2022-10-31T01:51:41;11.40;99.90
3980;DHT22;2004;52.452;13.120;2022-10-31T01:59:34;11.40;99.90
3980;DHT22;2004;52.452;13.120;2022-10-31T02:07:32;11.30;99.90
3980;DHT22;2004;52.452;13.120;2022-10-31T02:15:24;11.30;99.90
3980;DHT22;2004;52.452;13.120;2022-10-31T02:23:29;11.20;99.90
3980;DHT22;2004;52.452;13.120;2022-10-31T02:31:30;11.20;99.90
3980;DHT22;2004;52.452;13.120;2022-10-31T02:39:29;11.20;99.90
3980;DHT22;2004;52.452;13.120;2022-10-31T02:47:29;11.20;99.90
3980;DHT22;2004;52.452;13.120;2022-10-31T03:03:29;11.10;99.90
3980;DHT22;2004;52.452;13.120;2022-10-31T03:11:26;11.10;99.90
3980;DHT22;2004;52.452;13.120;2022-10-31T03:19:25;11.10;99.90
3980;DHT22;2004;52.452;13.120;2022-10-31T03:27:21;11.10;99.90
3980;DHT22;2004;52.452;13.120;2022-10-31T03:35:15;11.10;99.90
3980;DHT22;2004;52.452;13.120;2022-10-31T03:43:11;11.10;99.90
3980;DHT22;2004;52.452;13.120;2022-10-31T03:51:13;11.10;99.90
3980;DHT22;2004;52.452;13.120;2022-10-31T03:59:16;11.20;99.90
3980;DHT22;2004;52.452;13.120;2022-10-31T04:07:08;11.10;99.90
3980;DHT22;2004;52.452;13.120;2022-10-31T04:15:02;11.10;99.90
3980;DHT22;2004;52.452;13.120;2022-10-31T04:22:53;11.10;99.90
3980;DHT22;2004;52.452;13.120;2022-10-31T04:30:44;11.10;99.90
3980;DHT22;2004;52.452;13.120;2022-10-31T04:38:34;11.10;99.90
3980;DHT22;2004;52.452;13.120;2022-10-31T04:46:25;11.10;99.90
3980;DHT22;2004;52.452;13.120;2022-10-31T04:54:15;11.10;99.90
3980;DHT22;2004;52.452;13.120;2022-10-31T05:02:06;11.10;99.90
3980;DHT22;2004;52.452;13.120;2022-10-31T05:09:56;11.10;99.90
3980;DHT22;2004;52.452;13.120;2022-10-31T05:17:47;11.10;99.90
3980;DHT22;2004;52.452;13.120;2022-10-31T05:25:39;11.10;99.90
3980;DHT22;2004;52.452;13.120;2022-10-31T05:33:29;11.10;99.90
3980;DHT22;2004;52.452;13.120;2022-10-31T05:41:20;11.10;99.90
3980;DHT22;2004;52.452;13.120;2022-10-31T05:49:11;11.10;99.90
3980;DHT22;2004;52.452;13.120;2022-10-31T05:57:01;11.10;99.90
3980;DHT22;2004;52.452;13.120;2022-10-31T06:04:52;11.10;99.90
3980;DHT22;2004;52.452;13.120;2022-10-31T06:12:42;11.10;99.90
3980;DHT22;2004;52.452;13.120;2022-10-31T06:20:33;11.10;99.90
3980;DHT22;2004;52.452;13.120;2022-10-31T06:28:24;11.10;99.90
3980;DHT22;2004;52.452;13.120;2022-10-31T06:36:14;11.20;99.90
3980;DHT22;2004;52.452;13.120;2022-10-31T06:44:06;11.20;99.90
3980;DHT22;2004;52.452;13.120;2022-10-31T06:51:56;11.20;99.90
3980;DHT22;2004;52.452;13.120;2022-10-31T06:59:47;11.30;99.90
3980;DHT22;2004;52.452;13.120;2022-10-31T07:07:37;11.40;99.90
3980;DHT22;2004;52.452;13.120;2022-10-31T07:15:29;11.50;99.90
3980;DHT22;2004;52.452;13.120;2022-10-31T07:23:20;11.60;99.90
3980;DHT22;2004;52.452;13.120;2022-10-31T07:31:11;11.80;99.90
3980;DHT22;2004;52.452;13.120;2022-10-31T07:39:01;11.90;99.90
3980;DHT22;2004;52.452;13.120;2022-10-31T07:46:52;12.00;99.90
3980;DHT22;2004;52.452;13.120;2022-10-31T07:54:43;12.20;99.90
3980;DHT22;2004;52.452;13.120;2022-10-31T08:02:33;12.20;99.90
3980;DHT22;2004;52.452;13.120;2022-10-31T08:10:25;12.30;99.90
3980;DHT22;2004;52.452;13.120;2022-10-31T08:18:16;12.40;99.90
3980;DHT22;2004;52.452;13.120;2022-10-31T08:26:07;12.40;99.90
3980;DHT22;2004;52.452;13.120;2022-10-31T08:33:57;12.40;99.90
3980;DHT22;2004;52.452;13.120;2022-10-31T08:41:48;12.50;99.90
3980;DHT22;2004;52.452;13.120;2022-10-31T08:49:38;12.60;99.90
3980;DHT22;2004;52.452;13.120;2022-10-31T08:57:29;12.70;99.90
3980;DHT22;2004;52.452;13.120;2022-10-31T09:05:19;12.90;99.90
3980;DHT22;2004;52.452;13.120;2022-10-31T09:13:12;13.20;99.90
3980;DHT22;2004;52.452;13.120;2022-10-31T09:21:03;13.40;99.90
3980;DHT22;2004;52.452;13.120;2022-10-31T09:28:54;13.40;99.90
3980;DHT22;2004;52.452;13.120;2022-10-31T09:36:44;13.50;99.90
3980;DHT22;2004;52.452;13.120;2022-10-31T09:44:44;13.50;99.90
3980;DHT22;2004;52.452;13.120;2022-10-31T09:52:40;13.60;99.90
3980;DHT22;2004;52.452;13.120;2022-10-31T10:00:34;13.70;99.90
3980;DHT22;2004;52.452;13.120;2022-10-31T10:08:27;13.90;99.90
3980;DHT22;2004;52.452;13.120;2022-10-31T10:32:59;14.20;99.90
3980;DHT22;2004;52.452;13.120;2022-10-31T10:40:53;14.40;99.90
3980;DHT22;2004;52.452;13.120;2022-10-31T10:56:46;14.80;99.90
3980;DHT22;2004;52.452;13.120;2022-10-31T11:04:39;15.00;99.90
3980;DHT22;2004;52.452;13.120;2022-10-31T11:12:32;15.10;99.90
3980;DHT22;2004;52.452;13.120;2022-10-31T11:20:30;15.10;99.90
3980;DHT22;2004;52.452;13.120;2022-10-31T11:28:22;15.10;99.90
3980;DHT22;2004;52.452;13.120;2022-10-31T11:36:23;15.20;99.90
3980;DHT22;2004;52.452;13.120;2022-10-31T11:44:26;15.20;99.90
3980;DHT22;2004;52.452;13.120;2022-10-31T11:52:30;15.20;99.90
3980;DHT22;2004;52.452;13.120;2022-10-31T12:00:22;15.10;99.90
3980;DHT22;2004;52.452;13.120;2022-10-31T12:08:13;15.00;99.90
3980;DHT22;2004;52.452;13.120;2022-10-31T12:16:22;14.90;99.90
3980;DHT22;2004;52.452;13.120;2022-10-31T12:51:56;15.00;99.90
3980;DHT22;2004;52.452;13.120;2022-10-31T13:00:00;15.00;99.90
3980;DHT22;2004;52.452;13.120;2022-10-31T13:08:12;15.00;99.90
3980;DHT22;2004;52.452;13.120;2022-10-31T13:16:19;15.00;99.90
3980;DHT22;2004;52.452;13.120;2022-10-31T13:24:19;15.00;99.90
3980;DHT22;2004;52.452;13.120;2022-10-31T13:32:11;15.00;99.90
3980;DHT22;2004;52.452;13.120;2022-10-31T13:40:29;14.90;99.90
3980;DHT22;2004;52.452;13.120;2022-10-31T13:48:37;14.90;99.90
3980;DHT22;2004;52.452;13.120;2022-10-31T13:56:34;14.80;99.90
3980;DHT22;2004;52.452;13.120;2022-10-31T14:04:38;14.70;99.90
3980;DHT22;2004;52.452;13.120;2022-10-31T14:12:44;14.70;99.90
3980;DHT22;2004;52.452;13.120;2022-10-31T14:20:39;14.60;99.90
3980;DHT22;2004;52.452;13.120;2022-10-31T14:28:35;14.50;99.90
3980;DHT22;2004;52.452;13.120;2022-10-31T14:36:36;14.40;99.90
3980;DHT22;2004;52.452;13.120;2022-10-31T14:52:51;14.40;99.90
3980;DHT22;2004;52.452;13.120;2022-10-31T15:00:43;14.40;99.90
3980;DHT22;2004;52.452;13.120;2022-10-31T15:08:38;14.40;99.90
3980;DHT22;2004;52.452;13.120;2022-10-31T15:16:33;14.30;99.90
3980;DHT22;2004;52.452;13.120;2022-10-31T15:24:30;14.30;99.90
3980;DHT22;2004;52.452;13.120;2022-10-31T15:32:24;14.30;99.90
3980;DHT22;2004;52.452;13.120;2022-10-31T15:40:17;14.20;99.90
3980;DHT22;2004;52.452;13.120;2022-10-31T15:48:18;14.20;99.90
3980;DHT22;2004;52.452;13.120;2022-10-31T15:56:12;14.20;99.90
3980;DHT22;2004;52.452;13.120;2022-10-31T16:12:03;14.10;99.90
3980;DHT22;2004;52.452;13.120;2022-10-31T16:19:55;14.10;99.90
3980;DHT22;2004;52.452;13.120;2022-10-31T16:27:52;14.00;99.90
3980;DHT22;2004;52.452;13.120;2022-10-31T16:35:43;13.90;99.90
3980;DHT22;2004;52.452;13.120;2022-10-31T16:43:34;13.90;99.90
3980;DHT22;2004;52.452;13.120;2022-10-31T16:51:25;13.80;99.90
3980;DHT22;2004;52.452;13.120;2022-10-31T16:59:15;13.80;99.90
3980;DHT22;2004;52.452;13.120;2022-10-31T17:07:06;13.70;99.90
3980;DHT22;2004;52.452;13.120;2022-10-31T17:14:57;13.80;99.90
3980;DHT22;2004;52.452;13.120;2022-10-31T17:22:48;13.70;99.90
3980;DHT22;2004;52.452;13.120;2022-10-31T17:30:42;13.80;99.90
3980;DHT22;2004;52.452;13.120;2022-10-31T17:38:33;13.70;99.90
3980;DHT22;2004;52.452;13.120;2022-10-31T17:46:24;13.70;99.90
3980;DHT22;2004;52.452;13.120;2022-10-31T17:54:14;13.70;99.90
3980;DHT22;2004;52.452;13.120;2022-10-31T18:02:09;13.60;99.90
3980;DHT22;2004;52.452;13.120;2022-10-31T18:10:00;13.60;99.90
3980;DHT22;2004;52.452;13.120;2022-10-31T18:17:50;13.60;99.90
3980;DHT22;2004;52.452;13.120;2022-10-31T18:25:41;13.50;99.90
3980;DHT22;2004;52.452;13.120;2022-10-31T18:33:32;13.50;99.90
3980;DHT22;2004;52.452;13.120;2022-10-31T18:41:23;13.50;99.90
3980;DHT22;2004;52.452;13.120;2022-10-31T18:49:13;13.60;99.90
3980;DHT22;2004;52.452;13.120;2022-10-31T18:57:11;13.60;99.90
3980;DHT22;2004;52.452;13.120;2022-10-31T19:05:02;13.50;99.90
3980;DHT22;2004;52.452;13.120;2022-10-31T19:12:53;13.50;99.90
3980;DHT22;2004;52.452;13.120;2022-10-31T19:20:44;13.40;99.90
3980;DHT22;2004;52.452;13.120;2022-10-31T19:28:36;13.50;99.90
3980;DHT22;2004;52.452;13.120;2022-10-31T19:36:27;13.40;99.90
3980;DHT22;2004;52.452;13.120;2022-10-31T19:44:18;13.50;99.90
3980;DHT22;2004;52.452;13.120;2022-10-31T19:52:09;13.40;99.90
3980;DHT22;2004;52.452;13.120;2022-10-31T19:59:59;13.40;99.90
3980;DHT22;2004;52.452;13.120;2022-10-31T20:07:50;13.40;99.90
3980;DHT22;2004;52.452;13.120;2022-10-31T20:15:40;13.40;99.90
3980;DHT22;2004;52.452;13.120;2022-10-31T20:23:32;13.50;99.90
3980;DHT22;2004;52.452;13.120;2022-10-31T20:31:25;13.50;99.90
3980;DHT22;2004;52.452;13.120;2022-10-31T20:39:16;13.50;99.90
3980;DHT22;2004;52.452;13.120;2022-10-31T20:47:07;13.50;99.90
3980;DHT22;2004;52.452;13.120;2022-10-31T20:54:57;13.50;99.90
3980;DHT22;2004;52.452;13.120;2022-10-31T21:02:48;13.60;99.90
3980;DHT22;2004;52.452;13.120;2022-10-31T21:10:38;13.50;99.90
3980;DHT22;2004;52.452;13.120;2022-10-31T21:18:29;13.50;99.90
3980;DHT22;2004;52.452;13.120;2022-10-31T21:26:22;13.50;99.90
3980;DHT22;2004;52.452;13.120;2022-10-31T21:34:13;13.50;99.90
3980;DHT22;2004;52.452;13.120;2022-10-31T21:42:03;13.50;99.90
3980;DHT22;2004;52.452;13.120;2022-10-31T21:49:54;13.50;99.90
3980;DHT22;2004;52.452;13.120;2022-10-31T21:57:44;13.50;99.90
3980;DHT22;2004;52.452;13.120;2022-10-31T22:05:35;13.50;99.90
3980;DHT22;2004;52.452;13.120;2022-10-31T22:13:28;13.40;99.90
3980;DHT22;2004;52.452;13.120;2022-10-31T22:21:21;13.40;99.90
3980;DHT22;2004;52.452;13.120;2022-10-31T22:29:16;13.20;99.90
3980;DHT22;2004;52.452;13.120;2022-10-31T22:37:06;13.20;99.90
3980;DHT22;2004;52.452;13.120;2022-10-31T22:44:57;13.10;99.90
3980;DHT22;2004;52.452;13.120;2022-10-31T22:52:50;13.00;99.90
3980;DHT22;2004;52.452;13.120;2022-10-31T23:00:41;13.00;99.90
3980;DHT22;2004;52.452;13.120;2022-10-31T23:08:34;13.00;99.90
3980;DHT22;2004;52.452;13.120;2022-10-31T23:16:25;13.00;99.90
3980;DHT22;2004;52.452;13.120;2022-10-31T23:24:15;13.10;99.90
3980;DHT22;2004;52.452;13.120;2022-10-31T23:32:12;13.10;99.90
3980;DHT22;2004;52.452;13.120;2022-10-31T23:40:04;13.10;99.90
3980;DHT22;2004;52.452;13.120;2022-10-31T23:47:55;13.20;99.90
3980;DHT22;2004;52.452;13.120;2022-10-31T23:55:46;13.30;99.90
